Time;durP1;ratioP1;P1;durP2;ratioP2;P2;SDS_P1;SDS_P2;PMS_P1;PMS_P2;Temp;Humidity;BMP_temperature;BMP_pressure;BME280_temperature;BME280_humidity;BME280_pressure;Samples;Min_cycle;Max_cycle;Signal;HPM_P1;HPM_P2
2022/07/13 00:00:44;;;;;;;0.77;0.77;;;;;;;18.08;62.39;98838.25;4943028;29;20035;-84
2022/07/13 00:03:10;;;;;;;0.95;0.88;;;;;;;18.06;63.07;98850.94;4942825;28;20058;-85
2022/07/13 00:05:37;;;;;;;1.05;0.80;;;;;;;18.02;63.69;98847.94;4948144;29;20047;-85
2022/07/13 00:08:04;;;;;;;0.60;0.60;;;;;;;17.96;63.46;98840.06;4951920;28;20055;-85
2022/07/13 00:10:31;;;;;;;0.88;0.88;;;;;;;17.88;63.30;98827.97;4945469;29;20035;-85
2022/07/13 00:12:58;;;;;;;0.80;0.80;;;;;;;17.87;62.45;98853.69;4946499;28;20098;-85
2022/07/13 00:15:24;;;;;;;0.90;0.90;;;;;;;17.82;62.76;98840.28;4957168;28;20071;-85
2022/07/13 00:17:51;;;;;;;0.80;0.80;;;;;;;17.79;63.75;98839.91;4947334;29;20086;-85
2022/07/13 00:20:19;;;;;;;0.80;0.80;;;;;;;17.82;63.51;98837.63;4953842;28;20050;-84
2022/07/13 00:22:45;;;;;;;0.70;0.70;;;;;;;17.79;64.73;98830.13;4948225;29;20047;-84
2022/07/13 00:25:12;;;;;;;0.90;0.90;;;;;;;17.76;63.73;98835.91;4942487;29;20051;-85
2022/07/13 00:27:39;;;;;;;1.13;0.90;;;;;;;17.71;64.37;98822.47;4946731;29;20094;-84
2022/07/13 00:30:06;;;;;;;0.85;0.85;;;;;;;17.77;63.39;98832.19;4936802;29;20673;-84
2022/07/13 00:32:33;;;;;;;0.90;0.90;;;;;;;17.80;64.42;98847.66;4953900;28;20089;-85
2022/07/13 00:35:00;;;;;;;0.70;0.70;;;;;;;17.67;64.82;98826.59;4934727;29;20050;-85
2022/07/13 00:37:26;;;;;;;0.77;0.77;;;;;;;17.64;64.95;98825.22;4933216;29;20050;-86
2022/07/13 00:39:53;;;;;;;0.73;0.73;;;;;;;17.64;64.05;98833.19;4945512;28;20106;-85
2022/07/13 00:42:20;;;;;;;1.15;1.10;;;;;;;17.48;64.65;98823.22;4942910;29;20078;-86
2022/07/13 00:44:47;;;;;;;1.00;1.00;;;;;;;17.45;64.89;98823.66;4954013;28;20610;-85
2022/07/13 00:47:14;;;;;;;1.10;1.00;;;;;;;17.50;64.38;98831.75;4945879;29;20060;-85
2022/07/13 00:49:41;;;;;;;1.20;1.10;;;;;;;17.46;64.60;98833.25;4943125;28;20079;-85
2022/07/13 00:52:10;;;;;;;0.80;0.80;;;;;;;17.40;65.27;98823.53;4951250;29;20065;-85
2022/07/13 00:54:38;;;;;;;0.93;0.82;;;;;;;17.47;65.37;98826.91;4954136;28;20051;-85
2022/07/13 00:57:09;;;;;;;0.90;0.90;;;;;;;17.44;65.77;98834.50;4945759;29;20075;-85
2022/07/13 00:59:36;;;;;;;0.90;0.90;;;;;;;17.43;66.66;98830.22;4953725;28;20043;-85
2022/07/13 01:02:03;;;;;;;0.90;0.90;;;;;;;17.36;66.17;98815.22;4952265;29;20051;-86
2022/07/13 01:04:30;;;;;;;0.70;0.70;;;;;;;17.40;65.98;98826.19;4953148;29;20043;-84
2022/07/13 01:06:58;;;;;;;0.70;0.70;;;;;;;17.37;66.17;98816.03;4953521;28;20102;-86
2022/07/13 01:09:26;;;;;;;0.70;0.70;;;;;;;17.32;66.66;98815.88;4947848;28;20051;-85
2022/07/13 01:11:53;;;;;;;0.82;0.82;;;;;;;17.30;66.77;98815.31;4949275;28;20051;-85
2022/07/13 01:14:21;;;;;;;1.42;0.95;;;;;;;17.27;66.85;98821.91;4950835;29;20047;-85
2022/07/13 01:16:48;;;;;;;0.90;0.90;;;;;;;17.16;66.69;98804.09;4952773;28;20126;-85
2022/07/13 01:19:16;;;;;;;1.00;1.00;;;;;;;17.14;67.00;98814.09;4930948;29;20047;-84
2022/07/13 01:21:47;;;;;;;1.00;1.00;;;;;;;17.09;66.92;98811.31;4936649;29;20031;-85
2022/07/13 01:24:14;;;;;;;0.82;0.82;;;;;;;17.09;67.48;98825.38;4953291;29;20047;-84
2022/07/13 01:26:41;;;;;;;0.90;0.90;;;;;;;17.00;67.51;98825.91;4943096;29;20078;-84
2022/07/13 01:29:08;;;;;;;0.80;0.80;;;;;;;16.92;67.81;98818.28;4953531;29;20070;-85
2022/07/13 01:31:37;;;;;;;0.80;0.80;;;;;;;16.95;68.60;98823.13;4952247;29;20050;-85
2022/07/13 01:34:05;;;;;;;0.80;0.80;;;;;;;16.89;67.10;98826.66;4937476;29;20047;-85
2022/07/13 01:36:34;;;;;;;0.80;0.80;;;;;;;16.81;67.53;98819.81;4953290;28;20102;-85
2022/07/13 01:39:02;;;;;;;0.82;0.82;;;;;;;16.75;68.29;98813.56;4952803;28;20047;-85
2022/07/13 01:41:29;;;;;;;0.93;0.93;;;;;;;16.68;68.65;98812.00;4952345;29;20197;-85
2022/07/13 01:43:58;;;;;;;0.90;0.90;;;;;;;16.69;68.89;98818.91;4945048;28;20467;-85
2022/07/13 01:46:26;;;;;;;1.33;0.82;;;;;;;16.67;68.59;98827.06;4949251;29;20113;-85
2022/07/13 01:48:57;;;;;;;0.82;0.82;;;;;;;16.64;68.45;98827.53;4952778;29;20047;-85
2022/07/13 01:51:24;;;;;;;1.67;1.00;;;;;;;16.51;68.60;98820.53;4940844;28;20048;-84
2022/07/13 01:53:51;;;;;;;1.48;0.70;;;;;;;16.53;69.39;98820.31;4939777;29;20118;-85
2022/07/13 01:56:17;;;;;;;0.88;0.88;;;;;;;16.46;69.45;98814.28;4952781;29;20039;-85
2022/07/13 01:58:44;;;;;;;1.23;0.80;;;;;;;16.39;69.23;98801.09;4952697;28;20051;-85
2022/07/13 02:01:11;;;;;;;0.90;0.90;;;;;;;16.44;68.23;98811.84;4945747;28;20047;-85
2022/07/13 02:03:38;;;;;;;0.90;0.90;;;;;;;16.38;68.47;98806.63;4982653;28;20055;-85
2022/07/13 02:06:05;;;;;;;1.27;1.10;;;;;;;16.27;68.43;98802.84;4953147;28;20395;-86
2022/07/13 02:08:33;;;;;;;0.90;0.90;;;;;;;16.33;68.32;98813.38;4951184;28;20047;-85
2022/07/13 02:11:00;;;;;;;1.13;1.00;;;;;;;16.35;68.20;98815.00;4948821;29;20447;-85
2022/07/13 02:13:27;;;;;;;0.85;0.85;;;;;;;16.24;68.78;98801.44;4952182;29;20071;-84
2022/07/13 02:15:54;;;;;;;1.25;0.90;;;;;;;16.31;68.54;98807.50;4952849;28;20051;-84
2022/07/13 02:18:21;;;;;;;1.70;0.98;;;;;;;16.29;68.80;98804.25;4944899;29;20039;-84
2022/07/13 02:21:06;;;;;;;1.13;1.02;;;;;;;16.25;68.88;98803.09;4952698;29;20046;-85
2022/07/13 02:23:51;;;;;;;0.90;0.90;;;;;;;16.28;68.59;98801.81;4952953;29;20118;-85
2022/07/13 02:26:18;;;;;;;1.05;1.00;;;;;;;16.25;69.11;98797.78;4952513;28;20047;-85
2022/07/13 02:28:45;;;;;;;0.88;0.88;;;;;;;16.35;68.75;98807.84;4952526;29;20439;-85
2022/07/13 02:31:13;;;;;;;1.00;0.90;;;;;;;16.33;69.00;98800.16;4935705;29;20404;-85
2022/07/13 02:33:40;;;;;;;0.98;0.90;;;;;;;16.37;68.92;98794.41;4933465;29;20123;-85
2022/07/13 02:36:07;;;;;;;1.10;1.10;;;;;;;16.38;68.53;98790.75;4933568;29;20044;-85
2022/07/13 02:38:33;;;;;;;0.90;0.90;;;;;;;16.37;68.66;98779.31;4933282;29;20048;-86
2022/07/13 02:41:00;;;;;;;0.80;0.80;;;;;;;16.42;68.36;98790.06;4934500;29;20032;-84
2022/07/13 02:43:27;;;;;;;1.00;0.90;;;;;;;16.41;67.74;98787.66;4953353;28;20051;-85
2022/07/13 02:45:53;;;;;;;0.98;0.98;;;;;;;16.44;68.10;98800.47;4955191;28;20051;-84
2022/07/13 02:48:21;;;;;;;0.80;0.80;;;;;;;16.45;67.63;98791.47;4955107;28;20055;-84
2022/07/13 02:50:48;;;;;;;0.90;0.90;;;;;;;16.40;67.66;98783.38;4952689;28;20047;-85
2022/07/13 02:53:14;;;;;;;0.80;0.80;;;;;;;16.31;67.87;98773.09;4955223;29;20051;-84
2022/07/13 02:55:41;;;;;;;0.90;0.90;;;;;;;16.39;67.56;98781.78;4950676;29;20044;-85
2022/07/13 02:58:08;;;;;;;1.08;1.05;;;;;;;16.23;67.68;98760.13;4946047;29;20083;-84
2022/07/13 03:00:34;;;;;;;1.10;1.10;;;;;;;16.18;67.71;98772.41;4949093;28;20086;-84
2022/07/13 03:03:01;;;;;;;1.02;1.00;;;;;;;16.19;68.19;98782.78;4951646;28;20083;-86
2022/07/13 03:05:28;;;;;;;1.02;1.00;;;;;;;16.30;68.11;98795.28;4966021;28;20091;-85
2022/07/13 03:07:54;;;;;;;1.05;1.05;;;;;;;16.29;67.91;98795.50;4949949;29;20976;-85
2022/07/13 03:10:21;;;;;;;1.10;1.00;;;;;;;16.23;67.98;98769.91;4954966;28;20043;-85
2022/07/13 03:12:48;;;;;;;1.00;1.00;;;;;;;16.23;67.95;98783.94;4949194;28;20102;-84
2022/07/13 03:15:14;;;;;;;0.80;0.80;;;;;;;16.28;68.57;98783.31;4955232;28;20079;-85
2022/07/13 03:17:41;;;;;;;0.73;0.73;;;;;;;16.26;68.42;98775.59;4953169;29;20047;-85
2022/07/13 03:20:10;;;;;;;1.00;1.00;;;;;;;16.32;69.06;98782.66;4947922;29;20048;-86
2022/07/13 03:22:36;;;;;;;0.95;0.95;;;;;;;16.25;68.21;98776.63;4936547;29;20043;-85
2022/07/13 03:25:05;;;;;;;1.00;1.00;;;;;;;16.18;68.22;98767.91;4935939;29;20496;-85
2022/07/13 03:27:32;;;;;;;0.95;0.95;;;;;;;16.27;68.68;98776.41;4950186;29;20094;-84
2022/07/13 03:29:59;;;;;;;0.95;0.95;;;;;;;16.26;68.84;98778.22;4954902;28;20113;-85
2022/07/13 03:32:25;;;;;;;0.90;0.90;;;;;;;16.28;68.52;98784.09;4954812;28;20103;-85
2022/07/13 03:34:52;;;;;;;0.90;0.90;;;;;;;16.30;68.42;98789.16;4954958;29;20043;-85
2022/07/13 03:37:19;;;;;;;1.00;1.00;;;;;;;16.32;68.57;98792.44;4954946;29;20535;-85
2022/07/13 03:39:45;;;;;;;1.02;1.02;;;;;;;16.35;67.61;98804.41;4954914;28;20074;-84
2022/07/13 03:42:12;;;;;;;1.13;1.05;;;;;;;16.36;67.82;98806.03;4954749;28;20159;-84
2022/07/13 03:44:39;;;;;;;1.00;1.00;;;;;;;16.38;68.07;98801.34;4954903;29;20047;-85
2022/07/13 03:47:06;;;;;;;0.95;0.95;;;;;;;16.33;68.38;98799.34;4952923;29;20089;-84
2022/07/13 03:49:32;;;;;;;0.80;0.80;;;;;;;16.38;68.42;98801.34;4947470;29;20098;-85
2022/07/13 03:51:59;;;;;;;1.00;1.00;;;;;;;16.41;68.43;98806.19;4951923;29;20039;-85
2022/07/13 03:54:25;;;;;;;1.00;1.00;;;;;;;16.39;68.36;98789.72;4966850;28;20055;-85
2022/07/13 03:56:52;;;;;;;0.90;0.90;;;;;;;16.44;67.68;98795.16;4968038;28;20078;-84
2022/07/13 03:59:19;;;;;;;0.90;0.90;;;;;;;16.45;67.75;98796.78;4953820;28;20535;-85
2022/07/13 04:01:46;;;;;;;1.50;1.40;;;;;;;16.47;67.76;98792.88;4954189;29;20051;-87
2022/07/13 04:04:12;;;;;;;1.65;1.15;;;;;;;16.48;66.45;98794.47;4954280;28;20039;-84
2022/07/13 04:06:39;;;;;;;1.55;1.10;;;;;;;16.45;67.49;98776.41;4947223;28;20079;-84
2022/07/13 04:09:06;;;;;;;1.20;1.10;;;;;;;16.46;67.67;98771.91;4953625;29;20039;-84
2022/07/13 04:11:33;;;;;;;1.33;1.23;;;;;;;16.39;67.25;98752.66;4954289;28;20043;-85
2022/07/13 04:13:59;;;;;;;0.90;0.90;;;;;;;16.47;68.01;98774.31;4953699;28;20483;-84
2022/07/13 04:16:26;;;;;;;1.23;1.13;;;;;;;16.44;67.26;98758.09;4952271;29;20051;-84
2022/07/13 04:18:53;;;;;;;1.10;1.10;;;;;;;16.44;67.87;98763.38;4952174;28;20118;-84
2022/07/13 04:21:19;;;;;;;1.80;1.70;;;;;;;16.26;67.53;98757.06;4953762;28;20044;-83
2022/07/13 04:23:46;;;;;;;1.20;1.17;;;;;;;16.34;67.79;98758.59;4950925;29;20079;-86
2022/07/13 04:26:13;;;;;;;1.30;1.20;;;;;;;16.27;68.45;98748.09;4952942;29;20043;-85
2022/07/13 04:28:39;;;;;;;1.30;1.20;;;;;;;16.31;68.30;98751.09;4954245;28;20047;-86
2022/07/13 04:31:06;;;;;;;1.40;1.30;;;;;;;16.21;67.70;98742.88;4953001;29;20479;-85
2022/07/13 04:33:33;;;;;;;2.05;1.25;;;;;;;16.18;67.95;98733.50;4953999;29;20406;-83
2022/07/13 04:36:07;;;;;;;1.50;1.40;;;;;;;16.29;68.39;98750.50;4954781;28;20543;-86
2022/07/13 04:38:35;;;;;;;1.65;1.38;;;;;;;16.25;68.26;98734.28;4953423;28;20047;-86
2022/07/13 04:41:01;;;;;;;2.15;1.30;;;;;;;16.32;67.55;98740.28;4953887;28;20047;-84
2022/07/13 04:43:28;;;;;;;1.58;1.48;;;;;;;16.32;68.27;98742.13;4945397;28;20476;-85
2022/07/13 04:45:55;;;;;;;2.05;1.60;;;;;;;16.31;68.18;98745.78;4940303;28;20456;-85
2022/07/13 04:48:21;;;;;;;1.50;1.40;;;;;;;16.27;67.76;98748.09;4934496;29;20048;-83
2022/07/13 04:50:48;;;;;;;1.20;1.20;;;;;;;16.37;68.93;98744.09;4945107;29;20495;-85
2022/07/13 04:53:14;;;;;;;1.40;1.30;;;;;;;16.39;68.85;98750.81;4938246;29;20095;-84
2022/07/13 04:55:41;;;;;;;2.22;1.25;;;;;;;16.55;68.75;98760.81;4942555;29;20047;-83
2022/07/13 04:58:08;;;;;;;1.08;0.98;;;;;;;16.61;69.27;98756.44;4954031;28;20055;-83
2022/07/13 05:00:35;;;;;;;0.80;0.80;;;;;;;16.80;68.44;98773.97;4953340;29;20047;-83
2022/07/13 05:03:21;;;;;;;0.98;0.98;;;;;;;16.89;68.46;98758.56;4949171;29;20066;-83
2022/07/13 05:05:48;;;;;;;0.90;0.90;;;;;;;17.03;68.19;98762.69;4946745;28;20082;-83
2022/07/13 05:08:15;;;;;;;1.05;0.95;;;;;;;17.08;67.33;98743.44;4953059;29;20094;-83
2022/07/13 05:10:41;;;;;;;1.30;1.20;;;;;;;17.22;66.25;98766.09;4952680;28;20055;-83
2022/07/13 05:13:08;;;;;;;1.30;1.20;;;;;;;17.29;66.29;98777.41;4952193;29;20066;-83
2022/07/13 05:15:50;;;;;;;1.40;1.30;;;;;;;17.29;66.19;98766.78;4951981;28;20047;-84
2022/07/13 05:18:16;;;;;;;1.00;1.00;;;;;;;17.42;67.08;98770.28;4931687;29;20484;-82
2022/07/13 05:20:45;;;;;;;1.40;1.30;;;;;;;17.51;65.89;98767.09;4936120;29;20044;-83
2022/07/13 05:23:12;;;;;;;1.45;1.35;;;;;;;17.56;64.27;98766.38;4963596;28;20078;-82
2022/07/13 05:25:38;;;;;;;1.52;1.40;;;;;;;17.59;65.46;98768.59;4953060;29;20456;-83
2022/07/13 05:28:05;;;;;;;1.58;1.48;;;;;;;17.73;63.12;98770.00;4945498;28;20047;-83
2022/07/13 05:30:32;;;;;;;1.80;1.70;;;;;;;17.79;64.78;98777.06;4948591;29;20148;-83
2022/07/13 05:32:59;;;;;;;1.50;1.40;;;;;;;17.99;63.94;98786.53;4950473;29;20047;-84
2022/07/13 05:35:26;;;;;;;1.17;1.17;;;;;;;18.14;63.92;98774.41;4942434;29;20047;-83
2022/07/13 05:37:52;;;;;;;1.25;1.25;;;;;;;18.34;64.11;98787.31;4945619;28;20455;-84
2022/07/13 05:40:20;;;;;;;1.50;1.40;;;;;;;18.44;62.44;98790.19;4944410;28;20039;-84
2022/07/13 05:42:47;;;;;;;1.33;1.23;;;;;;;18.51;61.20;98790.06;4959034;28;20469;-83
2022/07/13 05:45:14;;;;;;;1.48;1.38;;;;;;;18.50;63.36;98777.03;4952241;29;20075;-82
2022/07/13 05:47:48;;;;;;;1.20;1.20;;;;;;;18.60;60.95;98783.38;4944000;28;20082;-83
2022/07/13 05:50:15;;;;;;;1.50;1.40;;;;;;;18.72;60.61;98791.34;4934336;28;20055;-83
2022/07/13 05:52:42;;;;;;;1.40;1.30;;;;;;;18.91;60.88;98790.13;4938487;29;20799;-82
2022/07/13 05:55:12;;;;;;;1.15;1.15;;;;;;;19.21;62.28;98794.41;4946673;29;20047;-83
2022/07/13 05:57:40;;;;;;;1.30;1.23;;;;;;;19.47;62.47;98795.66;4950709;28;20047;-83
2022/07/13 06:00:13;;;;;;;1.20;1.20;;;;;;;19.47;62.52;98783.16;4951928;29;20043;-84
2022/07/13 06:02:43;;;;;;;1.70;1.60;;;;;;;19.37;59.18;98777.66;4948894;29;20535;-84
2022/07/13 06:05:10;;;;;;;1.63;1.52;;;;;;;19.31;58.87;98793.75;4940554;29;20039;-83
2022/07/13 06:07:37;;;;;;;1.55;1.45;;;;;;;19.33;57.80;98794.34;4952298;29;20102;-84
2022/07/13 06:10:05;;;;;;;1.30;1.20;;;;;;;19.45;60.70;98793.22;4940469;29;20463;-83
2022/07/13 06:12:33;;;;;;;1.70;1.60;;;;;;;19.36;59.35;98794.66;4951960;29;20036;-83
2022/07/13 06:15:00;;;;;;;1.48;1.38;;;;;;;19.52;59.88;98790.41;4939117;29;20047;-83
2022/07/13 06:17:26;;;;;;;1.60;1.27;;;;;;;19.65;61.53;98800.78;4948780;29;20039;-84
2022/07/13 06:19:53;;;;;;;1.45;1.35;;;;;;;19.50;59.50;98789.84;4953714;28;20075;-84
2022/07/13 06:22:20;;;;;;;1.30;1.20;;;;;;;19.58;58.85;98796.63;4955956;29;20043;-84
2022/07/13 06:24:46;;;;;;;1.35;1.25;;;;;;;19.65;59.98;98800.78;4952338;29;20051;-83
2022/07/13 06:27:13;;;;;;;1.38;1.27;;;;;;;19.75;61.33;98795.63;4946421;29;20039;-84
2022/07/13 06:29:40;;;;;;;1.10;1.10;;;;;;;19.82;59.86;98795.47;4955886;29;20623;-83
2022/07/13 06:32:06;;;;;;;1.30;1.20;;;;;;;20.04;60.34;98811.50;4955943;28;20047;-83
2022/07/13 06:34:33;;;;;;;0.90;0.90;;;;;;;20.07;61.16;98788.91;4964757;28;20147;-84
2022/07/13 06:37:00;;;;;;;1.23;1.13;;;;;;;20.15;60.08;98793.81;4947343;28;20082;-84
2022/07/13 06:39:46;;;;;;;1.63;1.38;;;;;;;20.08;57.72;98793.16;4954959;28;20058;-84
2022/07/13 06:42:13;;;;;;;1.35;1.25;;;;;;;20.03;57.30;98801.88;4964430;28;20079;-84
2022/07/13 06:44:40;;;;;;;2.25;1.52;;;;;;;19.97;60.29;98808.19;4951117;29;20107;-84
2022/07/13 06:47:06;;;;;;;1.50;1.40;;;;;;;20.07;59.08;98803.03;4945016;29;20110;-84
2022/07/13 06:49:33;;;;;;;1.77;1.40;;;;;;;19.97;58.16;98792.22;4955500;28;20459;-84
2022/07/13 06:51:59;;;;;;;1.70;1.60;;;;;;;19.88;58.34;98791.81;4943502;28;20082;-85
2022/07/13 06:54:26;;;;;;;1.95;1.70;;;;;;;19.90;58.89;98787.06;4954006;28;20499;-83
2022/07/13 06:56:53;;;;;;;1.35;1.35;;;;;;;20.07;58.86;98791.56;4950369;28;20096;-84
2022/07/13 06:59:19;;;;;;;1.85;1.75;;;;;;;20.13;57.62;98788.72;4944755;29;20076;-85
2022/07/13 07:01:46;;;;;;;1.20;1.20;;;;;;;20.39;55.89;98773.09;4955075;29;20068;-84
2022/07/13 07:04:13;;;;;;;1.92;1.70;;;;;;;20.34;56.38;98770.38;4949685;28;20443;-85
2022/07/13 07:06:40;;;;;;;1.70;1.60;;;;;;;20.39;55.91;98778.41;4955308;28;20043;-84
2022/07/13 07:09:06;;;;;;;1.48;1.38;;;;;;;20.53;56.29;98779.72;4955193;29;20047;-85
2022/07/13 07:11:33;;;;;;;1.38;1.27;;;;;;;20.67;57.05;98780.94;4937251;29;20062;-84
2022/07/13 07:14:00;;;;;;;1.40;1.30;;;;;;;20.75;57.07;98777.03;4942821;28;20050;-84
2022/07/13 07:16:27;;;;;;;1.52;1.42;;;;;;;20.86;57.13;98784.09;4948587;29;20043;-85
2022/07/13 07:18:54;;;;;;;1.50;1.40;;;;;;;20.95;56.54;98774.63;4946553;28;20330;-85
2022/07/13 07:21:43;;;;;;;1.48;1.38;;;;;;;21.00;56.36;98757.88;4962717;28;20495;-85
2022/07/13 07:24:10;;;;;;;1.38;1.27;;;;;;;21.18;56.80;98754.06;4950159;28;20043;-84
2022/07/13 07:26:37;;;;;;;1.65;1.40;;;;;;;21.20;56.57;98751.94;4953122;29;20047;-84
2022/07/13 07:29:03;;;;;;;1.50;1.40;;;;;;;21.34;56.16;98737.94;4951966;28;20043;-85
2022/07/13 07:31:30;;;;;;;1.55;1.45;;;;;;;21.43;56.71;98740.97;4953344;28;20126;-85
2022/07/13 07:33:57;;;;;;;1.20;1.20;;;;;;;21.41;55.67;98734.25;4954661;29;20051;-85
2022/07/13 07:36:23;;;;;;;1.52;1.42;;;;;;;21.40;56.54;98722.78;4943145;29;20043;-85
2022/07/13 07:38:50;;;;;;;1.80;1.70;;;;;;;21.44;55.77;98726.56;4953445;29;20075;-84
2022/07/13 07:41:16;;;;;;;1.60;1.50;;;;;;;21.62;55.16;98746.72;4953741;28;20094;-84
2022/07/13 07:43:43;;;;;;;1.50;1.40;;;;;;;21.72;54.55;98743.31;4967859;28;20455;-85
2022/07/13 07:46:10;;;;;;;1.80;1.70;;;;;;;21.76;55.54;98739.06;4952547;29;20055;-86
2022/07/13 07:48:37;;;;;;;1.80;1.70;;;;;;;21.84;54.35;98747.41;4953882;29;20047;-86
2022/07/13 07:51:04;;;;;;;2.13;2.00;;;;;;;21.82;52.73;98735.38;4971049;28;20039;-86
2022/07/13 07:53:31;;;;;;;1.70;1.60;;;;;;;22.17;53.77;98740.97;4943639;28;20497;-86
2022/07/13 07:55:58;;;;;;;1.77;1.30;;;;;;;22.44;52.11;98745.38;4948052;29;20238;-85
2022/07/13 07:58:25;;;;;;;3.03;1.80;;;;;;;22.45;53.17;98749.66;4945041;29;20095;-85
2022/07/13 08:00:52;;;;;;;1.25;1.15;;;;;;;22.75;52.73;98743.63;4954031;28;20048;-86
2022/07/13 08:03:19;;;;;;;1.50;1.40;;;;;;;22.93;51.25;98742.34;4953220;28;20512;-86
2022/07/13 08:05:48;;;;;;;2.05;1.60;;;;;;;23.00;50.26;98753.59;4947171;28;20051;-86
2022/07/13 08:08:15;;;;;;;1.55;1.45;;;;;;;23.05;51.78;98740.25;4952856;29;20039;-87
2022/07/13 08:10:41;;;;;;;1.42;1.33;;;;;;;23.31;50.99;98748.28;4937328;29;20051;-86
2022/07/13 08:13:08;;;;;;;1.02;1.00;;;;;;;23.59;52.45;98731.72;4953025;28;20098;-86
2022/07/13 08:15:35;;;;;;;1.58;1.38;;;;;;;23.74;48.65;98742.44;4950633;28;20389;-86
2022/07/13 08:18:02;;;;;;;1.80;1.70;;;;;;;23.64;47.56;98736.31;4952129;29;20051;-86
2022/07/13 08:20:39;;;;;;;1.45;1.35;;;;;;;23.68;49.94;98738.16;4967191;28;20050;-85
2022/07/13 08:23:50;;;;;;;1.48;1.38;;;;;;;23.82;48.94;98740.28;4957424;28;20044;-86
2022/07/13 08:25:53;;;;;;;1.20;1.20;;;;;;;24.07;48.23;98740.25;4934378;29;20054;-86
2022/07/13 08:28:20;;;;;;;1.20;1.10;;;;;;;24.22;48.11;98732.16;4935785;29;20083;-85
2022/07/13 08:30:47;;;;;;;1.27;1.17;;;;;;;24.26;46.71;98737.78;4956428;28;20090;-86
2022/07/13 08:33:14;;;;;;;1.92;1.40;;;;;;;24.27;46.83;98734.00;4953063;29;20047;-86
2022/07/13 08:38:35;;;;;;;4.05;1.90;;;;;;;24.28;47.00;98733.72;4948667;29;20114;-85
2022/07/13 08:41:02;;;;;;;1.50;1.40;;;;;;;24.43;47.58;98732.91;4943863;29;20046;-86
2022/07/13 08:43:29;;;;;;;1.70;1.40;;;;;;;24.73;47.76;98742.72;4951750;29;20043;-86
2022/07/13 08:45:56;;;;;;;1.67;1.38;;;;;;;24.94;46.64;98729.97;4952731;29;20047;-86
2022/07/13 08:48:31;;;;;;;1.88;1.77;;;;;;;24.89;45.18;98731.88;4946573;29;20546;-85
2022/07/13 08:50:59;;;;;;;1.40;1.30;;;;;;;24.79;45.51;98736.25;4933862;29;20489;-87
2022/07/13 08:53:26;;;;;;;1.20;1.10;;;;;;;24.88;46.34;98743.69;4965485;28;20082;-87
2022/07/13 08:55:56;;;;;;;1.30;1.20;;;;;;;24.92;46.52;98734.81;4945852;29;20416;-87
2022/07/13 08:58:24;;;;;;;1.45;1.35;;;;;;;25.02;46.75;98728.59;4938183;29;20089;-88
2022/07/13 09:00:51;;;;;;;1.42;1.33;;;;;;;25.36;46.70;98737.50;4941730;28;20098;-88
2022/07/13 09:03:17;;;;;;;1.88;1.77;;;;;;;25.27;44.33;98724.97;4939157;29;20121;-86
2022/07/13 09:05:44;;;;;;;3.60;2.05;;;;;;;25.22;45.14;98723.13;4935824;28;20488;-87
2022/07/13 09:08:13;;;;;;;1.65;1.42;;;;;;;25.61;45.12;98731.13;4934547;29;20039;-87
2022/07/13 09:10:53;;;;;;;1.20;1.20;;;;;;;25.96;43.63;98736.47;4951644;29;20047;-86
2022/07/13 09:13:41;;;;;;;1.50;1.40;;;;;;;26.30;43.80;98736.38;4953002;28;20050;-86
2022/07/13 09:16:28;;;;;;;2.40;2.10;;;;;;;26.27;42.35;98743.13;4949196;29;20492;-86
2022/07/13 09:18:58;;;;;;;1.75;1.42;;;;;;;26.30;43.24;98731.78;4963727;28;20050;-86
2022/07/13 09:21:30;;;;;;;1.40;1.30;;;;;;;26.54;45.45;98736.38;4952590;28;20043;-86
2022/07/13 09:24:01;;;;;;;1.65;1.05;;;;;;;26.72;45.27;98722.16;4950871;29;20488;-87
2022/07/13 09:26:44;;;;;;;;;;;;;;;26.86;41.93;98731.09;4940218;29;20039;-86
2022/07/13 09:29:12;;;;;;;1.60;1.50;;;;;;;26.87;41.67;98730.03;4948766;29;20290;-85
2022/07/13 09:31:57;;;;;;;3.38;2.20;;;;;;;26.64;42.76;98725.50;4947297;28;20055;-86
2022/07/13 09:34:52;;;;;;;1.70;1.60;;;;;;;26.85;43.22;98726.81;4952177;28;20554;-86
2022/07/13 09:37:26;;;;;;;1.65;1.30;;;;;;;27.01;42.48;98729.28;4946943;28;20078;-88
2022/07/13 09:39:56;;;;;;;1.30;1.20;;;;;;;27.15;43.29;98714.81;4945779;29;20500;-88
2022/07/13 09:42:31;;;;;;;1.20;1.20;;;;;;;27.27;42.96;98717.06;4945274;29;20086;-87
2022/07/13 09:47:53;;;;;;;1.27;1.20;;;;;;;27.43;42.99;98721.09;4948629;29;20059;-86
2022/07/13 09:50:23;;;;;;;1.50;1.40;;;;;;;27.41;41.13;98717.91;4942683;29;20451;-86
2022/07/13 09:52:52;;;;;;;1.52;1.25;;;;;;;27.47;42.30;98732.09;4944970;28;20459;-86
2022/07/13 09:55:23;;;;;;;4.35;1.75;;;;;;;27.33;41.63;98718.56;4946689;28;20079;-89
2022/07/13 09:57:59;;;;;;;2.00;1.90;;;;;;;27.17;41.83;98715.34;4943037;29;20047;-86
2022/07/13 10:00:32;;;;;;;1.10;1.10;;;;;;;27.61;41.71;98705.19;4942760;29;20055;-87
2022/07/13 10:03:01;;;;;;;1.65;1.50;;;;;;;27.56;40.04;98694.50;4953516;28;20047;-87
2022/07/13 10:05:30;;;;;;;3.45;1.83;;;;;;;27.71;39.67;98691.59;4955897;29;20062;-88
2022/07/13 10:07:57;;;;;;;1.40;1.30;;;;;;;28.11;39.69;98699.97;4947859;29;20060;-87
2022/07/13 10:10:25;;;;;;;1.85;1.75;;;;;;;28.44;40.10;98692.59;4943637;29;20140;-88
2022/07/13 10:13:05;;;;;;;1.30;1.27;;;;;;;28.67;39.37;98696.97;4972364;28;20043;-87
2022/07/13 10:15:32;;;;;;;1.40;1.30;;;;;;;28.82;38.42;98701.22;4963555;28;20122;-88
2022/07/13 10:18:01;;;;;;;1.02;1.02;;;;;;;28.92;38.55;98695.63;4950578;29;21304;-88
2022/07/13 10:20:30;;;;;;;1.55;1.10;;;;;;;29.08;39.79;98700.66;4967365;28;20072;-88
2022/07/13 10:22:57;;;;;;;1.55;1.45;;;;;;;29.26;36.72;98695.06;4961784;28;20368;-86
2022/07/13 10:25:45;;;;;;;1.35;1.30;;;;;;;29.62;36.41;98696.88;4950823;29;20521;-85
2022/07/13 10:28:12;;;;;;;1.40;1.30;;;;;;;29.56;35.45;98704.31;4954326;29;20098;-87
2022/07/13 10:30:39;;;;;;;1.00;1.00;;;;;;;29.62;37.14;98702.28;4945811;28;20083;-88
2022/07/13 10:33:27;;;;;;;1.27;1.17;;;;;;;29.43;33.12;98697.06;4958411;28;20400;-88
2022/07/13 10:35:57;;;;;;;1.65;1.00;;;;;;;29.31;33.41;98686.84;4950041;29;20444;-88
2022/07/13 10:38:28;;;;;;;0.85;0.85;;;;;;;29.84;33.69;98698.75;4954807;29;20082;-88
2022/07/13 10:41:21;;;;;;;2.95;1.10;;;;;;;30.02;31.94;98695.00;4950806;29;20130;-89
2022/07/13 10:44:29;;;;;;;1.13;1.13;;;;;;;29.69;31.10;98686.47;4946516;29;20062;-86
2022/07/13 10:46:56;;;;;;;1.85;0.73;;;;;;;29.98;29.78;98683.22;4945457;28;20123;-87
2022/07/13 10:49:32;;;;;;;0.80;0.80;;;;;;;29.85;30.96;98684.13;4942078;29;20051;-87
2022/07/13 10:52:40;;;;;;;0.68;0.68;;;;;;;29.95;31.93;98689.25;4942622;29;20404;-88
2022/07/13 10:55:33;;;;;;;1.80;0.90;;;;;;;30.02;29.08;98688.81;4950542;29;20129;-87
2022/07/13 10:58:32;;;;;;;0.70;0.70;;;;;;;30.24;28.89;98680.63;4942984;28;20448;-88
2022/07/13 11:01:01;;;;;;;1.27;0.70;;;;;;;30.50;33.24;98683.38;4948039;29;20109;-87
2022/07/13 11:03:43;;;;;;;2.13;0.93;;;;;;;30.39;29.38;98672.06;4945296;29;20126;-88
2022/07/13 11:06:23;;;;;;;1.10;1.00;;;;;;;30.28;30.04;98664.56;4943332;29;20093;-88
2022/07/13 11:09:16;;;;;;;0.90;0.90;;;;;;;30.34;28.66;98668.72;4950121;28;20048;-86
2022/07/13 11:11:53;;;;;;;1.85;0.90;;;;;;;30.41;30.07;98671.78;4939615;29;20075;-86
2022/07/13 11:14:35;;;;;;;2.72;1.10;;;;;;;30.30;28.62;98662.34;4954590;28;20054;-88
2022/07/13 11:17:24;;;;;;;0.80;0.80;;;;;;;30.19;27.76;98667.25;4963125;28;20035;-89
2022/07/13 11:20:10;;;;;;;0.90;0.90;;;;;;;30.19;28.67;98658.34;4948573;29;20562;-87
2022/07/13 11:25:55;;;;;;;0.60;0.60;;;;;;;30.95;32.37;98655.22;4956915;28;20483;-87
2022/07/13 11:28:41;;;;;;;0.80;0.80;;;;;;;31.03;31.58;98647.13;4950488;29;20114;-88
2022/07/13 11:31:12;;;;;;;0.63;0.63;;;;;;;31.11;32.13;98643.59;4944332;29;20051;-87
2022/07/13 11:33:50;;;;;;;0.70;0.70;;;;;;;31.03;31.45;98652.53;4950710;29;20566;-90
2022/07/13 11:36:24;;;;;;;0.70;0.70;;;;;;;30.90;29.76;98640.75;4960966;28;20058;-86
2022/07/13 11:38:58;;;;;;;0.90;0.90;;;;;;;30.73;28.91;98626.44;4947610;28;20056;-87
2022/07/13 11:41:25;;;;;;;1.05;0.90;;;;;;;30.60;28.97;98633.56;4953925;28;20043;-89
2022/07/13 11:43:56;;;;;;;1.42;0.90;;;;;;;30.43;28.57;98628.94;4952846;29;20102;-86
2022/07/13 11:46:28;;;;;;;1.13;1.00;;;;;;;30.38;30.28;98627.19;4950231;29;20111;-86
2022/07/13 11:49:04;;;;;;;0.82;0.82;;;;;;;30.46;31.84;98630.19;4950327;29;20543;-88
2022/07/13 11:51:32;;;;;;;1.45;0.93;;;;;;;30.38;29.83;98616.34;4968200;28;20090;-87
2022/07/13 11:54:11;;;;;;;1.10;1.00;;;;;;;30.48;28.30;98626.09;4943667;28;20044;-87